sensor_id;sensor_type;location;lat;lon;timestamp;pressure;altitude;pressure_sealevel;temperature;humidity
41886;BME280;27567;43.084;25.616;2023-04-29T00:01:35;98383.59;;;3.09;100.00
41886;BME280;27567;43.084;25.616;2023-04-29T00:04:19;98395.00;;;3.28;100.00
41886;BME280;27567;43.084;25.616;2023-04-29T00:07:03;98395.59;;;3.22;100.00
41886;BME280;27567;43.084;25.616;2023-04-29T00:09:47;98384.91;;;3.13;100.00
41886;BME280;27567;43.084;25.616;2023-04-29T00:12:31;98395.97;;;3.27;100.00
41886;BME280;27567;43.084;25.616;2023-04-29T00:15:16;98395.00;;;3.28;100.00
41886;BME280;27567;43.084;25.616;2023-04-29T00:18:00;98396.19;;;3.15;100.00
41886;BME280;27567;43.084;25.616;2023-04-29T00:20:44;98401.19;;;3.19;100.00
41886;BME280;27567;43.084;25.616;2023-04-29T00:23:28;98399.69;;;3.16;100.00
41886;BME280;27567;43.084;25.616;2023-04-29T00:26:12;98390.84;;;3.07;100.00
41886;BME280;27567;43.084;25.616;2023-04-29T00:28:56;98386.84;;;3.03;100.00
41886;BME280;27567;43.084;25.616;2023-04-29T00:31:40;98398.25;;;3.04;100.00
41886;BME280;27567;43.084;25.616;2023-04-29T00:34:25;98384.19;;;3.03;100.00
41886;BME280;27567;43.084;25.616;2023-04-29T00:37:09;98380.78;;;2.93;100.00
41886;BME280;27567;43.084;25.616;2023-04-29T00:39:53;98390.31;;;2.85;100.00
41886;BME280;27567;43.084;25.616;2023-04-29T00:42:37;98375.56;;;2.83;100.00
41886;BME280;27567;43.084;25.616;2023-04-29T00:45:21;98386.75;;;2.77;100.00
41886;BME280;27567;43.084;25.616;2023-04-29T00:48:05;98380.09;;;2.73;100.00
41886;BME280;27567;43.084;25.616;2023-04-29T00:50:48;98381.16;;;2.62;100.00
41886;BME280;27567;43.084;25.616;2023-04-29T00:53:39;98371.25;;;2.64;100.00
41886;BME280;27567;43.084;25.616;2023-04-29T00:56:24;98364.59;;;2.60;100.00
41886;BME280;27567;43.084;25.616;2023-04-29T00:59:09;98361.06;;;2.41;100.00
41886;BME280;27567;43.084;25.616;2023-04-29T01:01:55;98351.03;;;2.45;100.00
41886;BME280;27567;43.084;25.616;2023-04-29T01:04:39;98346.25;;;2.48;100.00
41886;BME280;27567;43.084;25.616;2023-04-29T01:07:33;98349.25;;;2.35;100.00
41886;BME280;27567;43.084;25.616;2023-04-29T01:10:34;98355.25;;;2.37;100.00
41886;BME280;27567;43.084;25.616;2023-04-29T01:13:42;98351.91;;;2.35;100.00
41886;BME280;27567;43.084;25.616;2023-04-29T01:16:39;98353.25;;;2.21;100.00
41886;BME280;27567;43.084;25.616;2023-04-29T01:19:44;98349.78;;;2.21;100.00
41886;BME280;27567;43.084;25.616;2023-04-29T01:22:30;98344.56;;;2.29;100.00
41886;BME280;27567;43.084;25.616;2023-04-29T01:25:14;98349.91;;;2.19;100.00
41886;BME280;27567;43.084;25.616;2023-04-29T01:37:00;98331.84;;;2.15;100.00
41886;BME280;27567;43.084;25.616;2023-04-29T01:45:38;98330.97;;;2.24;100.00
41886;BME280;27567;43.084;25.616;2023-04-29T01:48:27;98338.44;;;2.29;100.00
41886;BME280;27567;43.084;25.616;2023-04-29T01:51:11;98325.81;;;2.22;100.00
41886;BME280;27567;43.084;25.616;2023-04-29T01:53:55;98333.16;;;2.29;100.00
41886;BME280;27567;43.084;25.616;2023-04-29T01:56:40;98328.03;;;2.27;100.00
41886;BME280;27567;43.084;25.616;2023-04-29T01:59:24;98331.09;;;2.22;100.00
41886;BME280;27567;43.084;25.616;2023-04-29T02:02:09;98332.75;;;2.23;100.00
41886;BME280;27567;43.084;25.616;2023-04-29T02:04:53;98331.78;;;2.24;100.00
41886;BME280;27567;43.084;25.616;2023-04-29T02:07:37;98327.78;;;2.20;100.00
41886;BME280;27567;43.084;25.616;2023-04-29T02:10:21;98322.41;;;2.12;100.00
41886;BME280;27567;43.084;25.616;2023-04-29T02:13:05;98324.88;;;2.14;100.00
41886;BME280;27567;43.084;25.616;2023-04-29T02:15:49;98336.31;;;2.14;100.00
41886;BME280;27567;43.084;25.616;2023-04-29T02:18:33;98338.28;;;2.12;100.00
41886;BME280;27567;43.084;25.616;2023-04-29T02:21:17;98341.34;;;2.07;100.00
41886;BME280;27567;43.084;25.616;2023-04-29T02:24:01;98333.28;;;2.09;100.00
41886;BME280;27567;43.084;25.616;2023-04-29T02:26:48;98332.13;;;2.12;100.00
41886;BME280;27567;43.084;25.616;2023-04-29T02:29:32;98326.63;;;2.05;100.00
41886;BME280;27567;43.084;25.616;2023-04-29T02:32:16;98328.97;;;2.08;100.00
41886;BME280;27567;43.084;25.616;2023-04-29T02:35:03;98311.28;;;2.08;100.00
41886;BME280;27567;43.084;25.616;2023-04-29T02:37:47;98317.31;;;2.01;100.00
41886;BME280;27567;43.084;25.616;2023-04-29T02:40:31;98314.94;;;1.98;100.00
41886;BME280;27567;43.084;25.616;2023-04-29T02:43:15;98316.47;;;2.00;100.00
41886;BME280;27567;43.084;25.616;2023-04-29T02:45:59;98316.03;;;2.05;100.00
41886;BME280;27567;43.084;25.616;2023-04-29T02:48:43;98324.25;;;2.02;100.00
41886;BME280;27567;43.084;25.616;2023-04-29T02:51:28;98325.00;;;1.94;100.00
41886;BME280;27567;43.084;25.616;2023-04-29T02:54:12;98313.88;;;1.90;100.00
41886;BME280;27567;43.084;25.616;2023-04-29T02:56:56;98304.97;;;1.91;100.00
41886;BME280;27567;43.084;25.616;2023-04-29T02:59:42;98313.19;;;1.88;100.00
41886;BME280;27567;43.084;25.616;2023-04-29T03:02:27;98312.34;;;1.88;100.00
41886;BME280;27567;43.084;25.616;2023-04-29T03:05:11;98311.78;;;1.94;100.00
41886;BME280;27567;43.084;25.616;2023-04-29T03:07:55;98316.53;;;1.90;100.00
41886;BME280;27567;43.084;25.616;2023-04-29T03:10:39;98312.81;;;1.83;100.00
41886;BME280;27567;43.084;25.616;2023-04-29T03:13:22;98309.19;;;1.84;100.00
41886;BME280;27567;43.084;25.616;2023-04-29T03:16:06;98319.59;;;1.86;100.00
41886;BME280;27567;43.084;25.616;2023-04-29T03:18:51;98321.25;;;1.87;100.00
41886;BME280;27567;43.084;25.616;2023-04-29T03:21:34;98318.09;;;1.83;100.00
41886;BME280;27567;43.084;25.616;2023-04-29T03:24:18;98308.91;;;1.87;100.00
41886;BME280;27567;43.084;25.616;2023-04-29T03:27:03;98322.59;;;2.01;100.00
41886;BME280;27567;43.084;25.616;2023-04-29T03:29:47;98338.16;;;2.04;100.00
41886;BME280;27567;43.084;25.616;2023-04-29T03:32:32;98325.09;;;2.02;100.00
41886;BME280;27567;43.084;25.616;2023-04-29T03:35:16;98329.09;;;2.06;100.00
41886;BME280;27567;43.084;25.616;2023-04-29T03:38:00;98328.31;;;2.24;100.00
41886;BME280;27567;43.084;25.616;2023-04-29T03:40:44;98328.91;;;2.18;100.00
41886;BME280;27567;43.084;25.616;2023-04-29T03:43:29;98338.75;;;2.25;100.00
41886;BME280;27567;43.084;25.616;2023-04-29T03:46:13;98327.94;;;2.19;100.00
41886;BME280;27567;43.084;25.616;2023-04-29T03:48:57;98332.69;;;2.33;100.00
41886;BME280;27567;43.084;25.616;2023-04-29T03:51:41;98333.94;;;2.39;100.00
41886;BME280;27567;43.084;25.616;2023-04-29T03:54:27;98335.59;;;2.40;100.00
41886;BME280;27567;43.084;25.616;2023-04-29T03:57:11;98346.66;;;2.53;100.00
41886;BME280;27567;43.084;25.616;2023-04-29T03:59:55;98339.31;;;2.65;100.00
41886;BME280;27567;43.084;25.616;2023-04-29T04:02:39;98344.09;;;2.62;100.00
41886;BME280;27567;43.084;25.616;2023-04-29T04:05:23;98349.31;;;2.72;100.00
41886;BME280;27567;43.084;25.616;2023-04-29T04:08:08;98352.03;;;2.80;100.00
41886;BME280;27567;43.084;25.616;2023-04-29T04:10:52;98352.69;;;3.18;100.00
41886;BME280;27567;43.084;25.616;2023-04-29T04:13:36;98349.56;;;3.23;100.00
41886;BME280;27567;43.084;25.616;2023-04-29T04:16:20;98347.88;;;3.40;100.00
41886;BME280;27567;43.084;25.616;2023-04-29T04:19:04;98355.50;;;3.69;100.00
41886;BME280;27567;43.084;25.616;2023-04-29T04:21:48;98355.75;;;3.84;100.00
41886;BME280;27567;43.084;25.616;2023-04-29T04:24:32;98350.81;;;3.98;100.00
41886;BME280;27567;43.084;25.616;2023-04-29T04:27:16;98344.94;;;4.12;100.00
41886;BME280;27567;43.084;25.616;2023-04-29T04:30:00;98358.25;;;4.29;100.00
41886;BME280;27567;43.084;25.616;2023-04-29T04:32:44;98358.34;;;4.62;100.00
41886;BME280;27567;43.084;25.616;2023-04-29T04:35:29;98357.91;;;5.00;100.00
41886;BME280;27567;43.084;25.616;2023-04-29T04:38:13;98354.91;;;5.11;100.00
41886;BME280;27567;43.084;25.616;2023-04-29T04:40:58;98360.72;;;5.31;100.00
41886;BME280;27567;43.084;25.616;2023-04-29T04:43:42;98361.88;;;5.45;100.00
41886;BME280;27567;43.084;25.616;2023-04-29T04:46:26;98361.31;;;5.75;100.00
41886;BME280;27567;43.084;25.616;2023-04-29T04:49:10;98360.59;;;6.06;100.00
41886;BME280;27567;43.084;25.616;2023-04-29T04:51:54;98367.84;;;6.28;100.00
41886;BME280;27567;43.084;25.616;2023-04-29T04:54:38;98371.75;;;6.41;100.00
41886;BME280;27567;43.084;25.616;2023-04-29T04:57:22;98374.53;;;6.56;100.00
41886;BME280;27567;43.084;25.616;2023-04-29T05:00:06;98377.63;;;6.68;100.00
41886;BME280;27567;43.084;25.616;2023-04-29T05:02:51;98371.47;;;6.90;100.00
41886;BME280;27567;43.084;25.616;2023-04-29T05:05:35;98371.78;;;6.96;100.00
41886;BME280;27567;43.084;25.616;2023-04-29T05:08:20;98359.94;;;7.21;100.00
41886;BME280;27567;43.084;25.616;2023-04-29T05:11:04;98376.38;;;7.25;100.00
41886;BME280;27567;43.084;25.616;2023-04-29T05:13:48;98376.47;;;7.55;100.00
41886;BME280;27567;43.084;25.616;2023-04-29T05:16:31;98374.91;;;7.46;100.00
41886;BME280;27567;43.084;25.616;2023-04-29T05:19:15;98371.84;;;7.49;100.00
41886;BME280;27567;43.084;25.616;2023-04-29T05:21:59;98371.63;;;7.74;100.00
41886;BME280;27567;43.084;25.616;2023-04-29T05:24:43;98372.09;;;7.39;100.00
41886;BME280;27567;43.084;25.616;2023-04-29T05:27:28;98377.47;;;7.54;100.00
41886;BME280;27567;43.084;25.616;2023-04-29T05:30:12;98376.78;;;7.75;100.00
41886;BME280;27567;43.084;25.616;2023-04-29T05:32:56;98365.00;;;7.85;100.00
41886;BME280;27567;43.084;25.616;2023-04-29T05:35:41;98368.16;;;7.88;100.00
41886;BME280;27567;43.084;25.616;2023-04-29T05:38:25;98369.31;;;8.01;100.00
41886;BME280;27567;43.084;25.616;2023-04-29T05:41:11;98361.31;;;8.16;100.00
41886;BME280;27567;43.084;25.616;2023-04-29T05:43:57;98365.38;;;8.11;100.00
41886;BME280;27567;43.084;25.616;2023-04-29T05:46:41;98362.06;;;7.79;100.00
41886;BME280;27567;43.084;25.616;2023-04-29T05:49:25;98357.22;;;7.60;100.00
41886;BME280;27567;43.084;25.616;2023-04-29T05:52:08;98356.59;;;7.73;100.00
41886;BME280;27567;43.084;25.616;2023-04-29T05:54:52;98359.75;;;7.76;100.00
41886;BME280;27567;43.084;25.616;2023-04-29T05:57:36;98356.72;;;7.79;100.00
41886;BME280;27567;43.084;25.616;2023-04-29T06:00:21;98355.16;;;8.00;100.00
41886;BME280;27567;43.084;25.616;2023-04-29T06:03:05;98358.84;;;8.14;100.00
41886;BME280;27567;43.084;25.616;2023-04-29T06:05:49;98358.78;;;8.44;100.00
41886;BME280;27567;43.084;25.616;2023-04-29T06:08:33;98358.31;;;8.92;100.00
41886;BME280;27567;43.084;25.616;2023-04-29T06:11:17;98360.72;;;9.09;100.00
41886;BME280;27567;43.084;25.616;2023-04-29T06:14:01;98357.91;;;9.39;100.00
41886;BME280;27567;43.084;25.616;2023-04-29T06:16:46;98355.91;;;9.47;100.00
41886;BME280;27567;43.084;25.616;2023-04-29T06:19:30;98356.94;;;9.46;100.00
41886;BME280;27567;43.084;25.616;2023-04-29T06:22:15;98353.97;;;9.35;100.00
41886;BME280;27567;43.084;25.616;2023-04-29T06:24:59;98353.28;;;9.26;100.00
41886;BME280;27567;43.084;25.616;2023-04-29T06:27:43;98355.81;;;9.34;100.00
41886;BME280;27567;43.084;25.616;2023-04-29T06:30:27;98352.91;;;9.57;100.00
41886;BME280;27567;43.084;25.616;2023-04-29T06:33:11;98350.66;;;9.32;100.00
41886;BME280;27567;43.084;25.616;2023-04-29T06:35:56;98352.06;;;9.28;100.00
41886;BME280;27567;43.084;25.616;2023-04-29T06:38:40;98354.56;;;9.30;100.00
41886;BME280;27567;43.084;25.616;2023-04-29T06:41:25;98346.81;;;9.70;100.00
41886;BME280;27567;43.084;25.616;2023-04-29T06:44:10;98345.69;;;10.21;100.00
41886;BME280;27567;43.084;25.616;2023-04-29T06:46:55;98343.19;;;10.62;100.00
41886;BME280;27567;43.084;25.616;2023-04-29T06:49:39;98336.81;;;10.70;100.00
41886;BME280;27567;43.084;25.616;2023-04-29T06:52:23;98343.66;;;10.92;100.00
41886;BME280;27567;43.084;25.616;2023-04-29T06:55:07;98334.63;;;11.07;100.00
41886;BME280;27567;43.084;25.616;2023-04-29T06:57:52;98336.69;;;11.05;100.00
41886;BME280;27567;43.084;25.616;2023-04-29T07:00:36;98330.06;;;11.21;100.00
41886;BME280;27567;43.084;25.616;2023-04-29T07:03:20;98338.53;;;11.58;100.00
41886;BME280;27567;43.084;25.616;2023-04-29T07:06:05;98324.41;;;11.96;100.00
41886;BME280;27567;43.084;25.616;2023-04-29T07:08:49;98324.59;;;12.08;100.00
41886;BME280;27567;43.084;25.616;2023-04-29T07:11:34;98323.16;;;12.06;100.00
41886;BME280;27567;43.084;25.616;2023-04-29T07:14:18;98325.59;;;12.21;100.00
41886;BME280;27567;43.084;25.616;2023-04-29T07:17:01;98321.59;;;12.43;100.00
41886;BME280;27567;43.084;25.616;2023-04-29T07:19:46;98319.22;;;12.92;100.00
41886;BME280;27567;43.084;25.616;2023-04-29T07:22:30;98321.75;;;12.87;100.00
41886;BME280;27567;43.084;25.616;2023-04-29T07:25:14;98320.50;;;12.90;100.00
41886;BME280;27567;43.084;25.616;2023-04-29T07:27:58;98315.63;;;13.05;93.08
41886;BME280;27567;43.084;25.616;2023-04-29T07:30:43;98314.25;;;13.21;98.38
41886;BME280;27567;43.084;25.616;2023-04-29T07:33:27;98314.16;;;13.35;100.00
41886;BME280;27567;43.084;25.616;2023-04-29T07:36:11;98314.41;;;13.59;99.02
41886;BME280;27567;43.084;25.616;2023-04-29T07:38:55;98316.16;;;13.72;100.00
41886;BME280;27567;43.084;25.616;2023-04-29T07:41:39;98310.25;;;13.81;80.18
41886;BME280;27567;43.084;25.616;2023-04-29T07:44:23;98304.53;;;13.71;72.93
41886;BME280;27567;43.084;25.616;2023-04-29T07:47:07;98311.81;;;13.71;82.25
41886;BME280;27567;43.084;25.616;2023-04-29T07:49:51;98304.16;;;14.23;80.75
41886;BME280;27567;43.084;25.616;2023-04-29T07:52:36;98303.94;;;14.25;71.51
41886;BME280;27567;43.084;25.616;2023-04-29T07:55:20;98307.09;;;14.71;74.89
41886;BME280;27567;43.084;25.616;2023-04-29T07:58:04;98301.56;;;14.47;81.56
41886;BME280;27567;43.084;25.616;2023-04-29T08:00:48;98305.41;;;14.88;70.91
41886;BME280;27567;43.084;25.616;2023-04-29T08:03:36;98304.75;;;14.44;72.82
41886;BME280;27567;43.084;25.616;2023-04-29T08:06:20;98300.50;;;14.18;73.94
41886;BME280;27567;43.084;25.616;2023-04-29T08:09:05;98300.03;;;14.21;75.15
41886;BME280;27567;43.084;25.616;2023-04-29T08:11:49;98292.69;;;14.09;74.55
41886;BME280;27567;43.084;25.616;2023-04-29T08:14:33;98296.97;;;14.36;72.83
41886;BME280;27567;43.084;25.616;2023-04-29T08:17:17;98291.16;;;14.51;70.69
41886;BME280;27567;43.084;25.616;2023-04-29T08:20:01;98289.50;;;14.68;64.87
41886;BME280;27567;43.084;25.616;2023-04-29T08:22:46;98283.19;;;14.75;66.56
41886;BME280;27567;43.084;25.616;2023-04-29T08:25:31;98270.44;;;14.33;74.18
41886;BME280;27567;43.084;25.616;2023-04-29T08:28:15;98279.44;;;14.57;70.80
41886;BME280;27567;43.084;25.616;2023-04-29T08:30:59;98285.19;;;14.79;69.68
41886;BME280;27567;43.084;25.616;2023-04-29T08:33:43;98285.63;;;14.76;68.35
41886;BME280;27567;43.084;25.616;2023-04-29T08:36:27;98277.69;;;14.81;71.62
41886;BME280;27567;43.084;25.616;2023-04-29T08:39:12;98270.66;;;14.92;78.01
41886;BME280;27567;43.084;25.616;2023-04-29T08:41:57;98271.19;;;15.37;70.90
41886;BME280;27567;43.084;25.616;2023-04-29T08:44:42;98273.75;;;15.08;76.96
41886;BME280;27567;43.084;25.616;2023-04-29T08:47:31;98267.69;;;14.82;91.87
41886;BME280;27567;43.084;25.616;2023-04-29T08:50:16;98274.28;;;14.55;94.81
41886;BME280;27567;43.084;25.616;2023-04-29T08:53:00;98266.41;;;14.72;96.10
41886;BME280;27567;43.084;25.616;2023-04-29T08:55:45;98268.66;;;14.76;86.07
41886;BME280;27567;43.084;25.616;2023-04-29T08:58:33;98268.59;;;14.45;100.00
41886;BME280;27567;43.084;25.616;2023-04-29T09:01:17;98270.09;;;14.29;100.00
41886;BME280;27567;43.084;25.616;2023-04-29T09:04:13;98265.94;;;14.26;99.67
41886;BME280;27567;43.084;25.616;2023-04-29T09:07:06;98262.16;;;14.46;96.25
41886;BME280;27567;43.084;25.616;2023-04-29T09:09:51;98262.66;;;14.24;98.78
41886;BME280;27567;43.084;25.616;2023-04-29T09:12:42;98258.66;;;14.46;99.20
41886;BME280;27567;43.084;25.616;2023-04-29T09:15:36;98244.22;;;14.70;90.05
41886;BME280;27567;43.084;25.616;2023-04-29T09:18:46;98260.34;;;14.58;91.40
41886;BME280;27567;43.084;25.616;2023-04-29T09:21:33;98260.56;;;14.76;82.69
41886;BME280;27567;43.084;25.616;2023-04-29T09:24:24;98247.88;;;14.46;84.58
41886;BME280;27567;43.084;25.616;2023-04-29T09:27:25;98247.88;;;14.76;79.48
41886;BME280;27567;43.084;25.616;2023-04-29T09:30:14;98234.66;;;15.10;78.03
41886;BME280;27567;43.084;25.616;2023-04-29T09:33:07;98244.25;;;14.82;71.33
41886;BME280;27567;43.084;25.616;2023-04-29T09:35:55;98234.53;;;14.93;71.69
41886;BME280;27567;43.084;25.616;2023-04-29T09:38:52;98241.47;;;15.48;71.56
41886;BME280;27567;43.084;25.616;2023-04-29T09:44:28;98224.56;;;15.29;75.00
41886;BME280;27567;43.084;25.616;2023-04-29T09:47:13;98229.00;;;15.59;72.71
41886;BME280;27567;43.084;25.616;2023-04-29T09:50:10;98228.28;;;16.00;70.58
41886;BME280;27567;43.084;25.616;2023-04-29T09:52:54;98231.34;;;15.80;70.34
41886;BME280;27567;43.084;25.616;2023-04-29T09:56:01;98228.06;;;15.66;63.26
41886;BME280;27567;43.084;25.616;2023-04-29T09:58:45;98216.66;;;15.63;64.97
41886;BME280;27567;43.084;25.616;2023-04-29T10:01:29;98213.00;;;15.93;63.75
41886;BME280;27567;43.084;25.616;2023-04-29T10:04:17;98210.53;;;16.21;56.49
41886;BME280;27567;43.084;25.616;2023-04-29T10:07:01;98213.91;;;15.99;63.39
41886;BME280;27567;43.084;25.616;2023-04-29T10:09:46;98201.97;;;17.21;57.07
41886;BME280;27567;43.084;25.616;2023-04-29T10:12:33;98206.91;;;18.63;48.36
41886;BME280;27567;43.084;25.616;2023-04-29T10:16:12;98191.63;;;20.54;40.82
41886;BME280;27567;43.084;25.616;2023-04-29T10:18:59;98190.13;;;21.86;37.90
41886;BME280;27567;43.084;25.616;2023-04-29T10:21:44;98190.00;;;23.56;35.44
41886;BME280;27567;43.084;25.616;2023-04-29T10:24:31;98185.47;;;24.14;33.02
41886;BME280;27567;43.084;25.616;2023-04-29T10:27:18;98199.59;;;24.21;32.70
41886;BME280;27567;43.084;25.616;2023-04-29T10:30:06;98193.38;;;24.92;30.69
41886;BME280;27567;43.084;25.616;2023-04-29T10:32:53;98181.22;;;28.27;26.34
41886;BME280;27567;43.084;25.616;2023-04-29T10:35:44;98189.06;;;27.85;27.22
41886;BME280;27567;43.084;25.616;2023-04-29T10:38:43;98186.28;;;27.67;26.30
41886;BME280;27567;43.084;25.616;2023-04-29T10:41:49;98192.03;;;30.92;23.57
41886;BME280;27567;43.084;25.616;2023-04-29T10:48:07;98183.16;;;32.72;21.76
41886;BME280;27567;43.084;25.616;2023-04-29T10:53:57;98182.84;;;31.83;21.57
41886;BME280;27567;43.084;25.616;2023-04-29T10:56:43;98184.28;;;30.00;23.06
41886;BME280;27567;43.084;25.616;2023-04-29T11:02:17;98182.81;;;26.53;26.00
41886;BME280;27567;43.084;25.616;2023-04-29T11:05:24;98175.22;;;28.43;24.19
41886;BME280;27567;43.084;25.616;2023-04-29T11:08:45;98188.63;;;31.66;21.90
41886;BME280;27567;43.084;25.616;2023-04-29T11:11:44;98188.94;;;31.39;21.95
41886;BME280;27567;43.084;25.616;2023-04-29T11:17:17;98179.34;;;29.46;24.08
41886;BME280;27567;43.084;25.616;2023-04-29T11:20:18;98170.34;;;29.96;23.27
41886;BME280;27567;43.084;25.616;2023-04-29T11:23:02;98168.00;;;29.30;23.34
41886;BME280;27567;43.084;25.616;2023-04-29T11:25:47;98165.28;;;30.41;22.12
41886;BME280;27567;43.084;25.616;2023-04-29T11:28:32;98170.91;;;32.20;21.34
41886;BME280;27567;43.084;25.616;2023-04-29T11:31:46;98170.53;;;33.19;20.32
41886;BME280;27567;43.084;25.616;2023-04-29T11:34:33;98173.75;;;30.78;21.42
41886;BME280;27567;43.084;25.616;2023-04-29T11:37:22;98164.38;;;29.47;22.61
41886;BME280;27567;43.084;25.616;2023-04-29T11:40:07;98158.66;;;32.21;21.36
41886;BME280;27567;43.084;25.616;2023-04-29T11:42:51;98160.53;;;31.17;21.09
41886;BME280;27567;43.084;25.616;2023-04-29T11:45:35;98156.25;;;30.53;21.97
41886;BME280;27567;43.084;25.616;2023-04-29T11:48:23;98156.81;;;29.95;22.21
41886;BME280;27567;43.084;25.616;2023-04-29T11:51:08;98161.06;;;29.15;23.24
41886;BME280;27567;43.084;25.616;2023-04-29T11:53:52;98154.41;;;27.84;23.42
41886;BME280;27567;43.084;25.616;2023-04-29T11:56:37;98152.22;;;28.56;23.48
41886;BME280;27567;43.084;25.616;2023-04-29T11:59:21;98157.56;;;26.74;25.61
41886;BME280;27567;43.084;25.616;2023-04-29T12:02:10;98145.97;;;25.05;26.60
41886;BME280;27567;43.084;25.616;2023-04-29T12:04:55;98138.81;;;25.38;26.50
41886;BME280;27567;43.084;25.616;2023-04-29T12:07:40;98143.88;;;26.37;25.33
41886;BME280;27567;43.084;25.616;2023-04-29T12:10:24;98141.66;;;26.39;24.33
41886;BME280;27567;43.084;25.616;2023-04-29T12:13:08;98140.91;;;26.70;24.57
41886;BME280;27567;43.084;25.616;2023-04-29T12:15:52;98132.22;;;26.99;25.23
41886;BME280;27567;43.084;25.616;2023-04-29T12:18:40;98141.69;;;26.25;24.74
41886;BME280;27567;43.084;25.616;2023-04-29T12:21:25;98121.84;;;27.37;24.17
41886;BME280;27567;43.084;25.616;2023-04-29T12:24:11;98124.94;;;28.72;23.39
41886;BME280;27567;43.084;25.616;2023-04-29T12:26:56;98109.66;;;30.76;22.10
41886;BME280;27567;43.084;25.616;2023-04-29T12:29:42;98107.31;;;27.45;24.44
41886;BME280;27567;43.084;25.616;2023-04-29T12:32:26;98117.47;;;28.73;22.96
41886;BME280;27567;43.084;25.616;2023-04-29T12:35:15;98103.56;;;28.34;23.19
41886;BME280;27567;43.084;25.616;2023-04-29T12:38:00;98104.97;;;26.44;24.66
41886;BME280;27567;43.084;25.616;2023-04-29T12:40:44;98109.22;;;25.76;25.86
41886;BME280;27567;43.084;25.616;2023-04-29T12:43:30;98103.84;;;27.97;23.35
41886;BME280;27567;43.084;25.616;2023-04-29T12:46:14;98090.34;;;29.40;22.08
41886;BME280;27567;43.084;25.616;2023-04-29T12:49:01;98098.25;;;29.12;22.91
41886;BME280;27567;43.084;25.616;2023-04-29T12:51:46;98094.09;;;29.65;22.37
41886;BME280;27567;43.084;25.616;2023-04-29T12:54:29;98091.63;;;30.36;21.75
41886;BME280;27567;43.084;25.616;2023-04-29T12:57:13;98078.81;;;30.99;21.45
41886;BME280;27567;43.084;25.616;2023-04-29T12:59:58;98072.16;;;32.15;20.66
41886;BME280;27567;43.084;25.616;2023-04-29T13:02:42;98073.56;;;31.31;21.67
41886;BME280;27567;43.084;25.616;2023-04-29T13:05:26;98066.75;;;32.63;20.38
41886;BME280;27567;43.084;25.616;2023-04-29T13:08:10;98061.28;;;32.22;20.69
41886;BME280;27567;43.084;25.616;2023-04-29T13:10:54;98057.09;;;30.64;21.41
41886;BME280;27567;43.084;25.616;2023-04-29T13:13:38;98071.25;;;27.15;24.15
41886;BME280;27567;43.084;25.616;2023-04-29T13:16:22;98067.47;;;27.42;24.61
41886;BME280;27567;43.084;25.616;2023-04-29T13:19:07;98069.38;;;28.26;23.58
41886;BME280;27567;43.084;25.616;2023-04-29T13:21:51;98056.47;;;28.65;23.81
41886;BME280;27567;43.084;25.616;2023-04-29T13:24:35;98060.16;;;29.35;23.04
41886;BME280;27567;43.084;25.616;2023-04-29T13:27:19;98052.53;;;30.25;22.05
41886;BME280;27567;43.084;25.616;2023-04-29T13:30:05;98039.25;;;33.70;20.26
41886;BME280;27567;43.084;25.616;2023-04-29T13:32:49;98037.66;;;29.15;22.47
41886;BME280;27567;43.084;25.616;2023-04-29T13:35:33;98043.44;;;29.31;22.15
41886;BME280;27567;43.084;25.616;2023-04-29T13:38:18;98039.84;;;30.46;22.26
41886;BME280;27567;43.084;25.616;2023-04-29T13:41:02;98034.31;;;29.69;22.75
41886;BME280;27567;43.084;25.616;2023-04-29T13:43:46;98028.16;;;29.43;22.79
41886;BME280;27567;43.084;25.616;2023-04-29T13:46:31;98036.13;;;27.87;24.31
41886;BME280;27567;43.084;25.616;2023-04-29T13:49:15;98036.22;;;25.75;26.28
41886;BME280;27567;43.084;25.616;2023-04-29T13:51:59;98034.75;;;22.99;28.98
41886;BME280;27567;43.084;25.616;2023-04-29T13:54:44;98044.78;;;21.70;31.78
41886;BME280;27567;43.084;25.616;2023-04-29T13:57:28;98038.59;;;20.89;33.53
41886;BME280;27567;43.084;25.616;2023-04-29T14:00:12;98043.56;;;21.42;33.62
41886;BME280;27567;43.084;25.616;2023-04-29T14:02:57;98036.88;;;21.08;33.96
41886;BME280;27567;43.084;25.616;2023-04-29T14:05:40;98033.63;;;21.01;36.39
41886;BME280;27567;43.084;25.616;2023-04-29T14:08:24;98029.69;;;21.33;35.08
41886;BME280;27567;43.084;25.616;2023-04-29T14:11:08;98030.56;;;21.79;34.31
41886;BME280;27567;43.084;25.616;2023-04-29T14:13:52;98012.16;;;22.88;32.69
41886;BME280;27567;43.084;25.616;2023-04-29T14:16:36;98015.34;;;23.63;32.11
41886;BME280;27567;43.084;25.616;2023-04-29T14:19:20;98006.47;;;27.84;26.56
41886;BME280;27567;43.084;25.616;2023-04-29T14:22:04;98007.31;;;31.01;23.61
41886;BME280;27567;43.084;25.616;2023-04-29T14:24:48;98004.88;;;30.28;23.46
41886;BME280;27567;43.084;25.616;2023-04-29T14:27:32;98014.13;;;26.40;27.01
41886;BME280;27567;43.084;25.616;2023-04-29T14:30:18;98013.19;;;23.98;30.80
41886;BME280;27567;43.084;25.616;2023-04-29T14:33:02;98007.97;;;27.06;27.26
41886;BME280;27567;43.084;25.616;2023-04-29T14:35:47;98003.09;;;28.14;25.64
41886;BME280;27567;43.084;25.616;2023-04-29T14:38:31;97997.19;;;28.42;24.84
41886;BME280;27567;43.084;25.616;2023-04-29T14:41:14;97994.78;;;28.05;24.84
41886;BME280;27567;43.084;25.616;2023-04-29T14:43:58;97994.84;;;28.14;24.03
41886;BME280;27567;43.084;25.616;2023-04-29T14:46:42;97999.53;;;28.70;24.26
41886;BME280;27567;43.084;25.616;2023-04-29T14:49:26;97998.72;;;27.78;24.18
41886;BME280;27567;43.084;25.616;2023-04-29T14:52:10;98005.03;;;23.36;28.79
41886;BME280;27567;43.084;25.616;2023-04-29T14:54:54;98004.19;;;21.08;32.39
41886;BME280;27567;43.084;25.616;2023-04-29T14:57:39;98000.78;;;19.78;36.21